Time;durP1;ratioP1;P1;durP2;ratioP2;P2;SDS_P1;SDS_P2;PMS_P1;PMS_P2;Temp;Humidity;BMP_temperature;BMP_pressure;BME280_temperature;BME280_humidity;BME280_pressure;Samples;Min_cycle;Max_cycle;Signal;HPM_P1;HPM_P2
2023/07/20 00:02:07;;;;;;;0.00;0.00;;;19.00;99.90;;;;;;7392662;19;20145;-75
2023/07/20 00:04:36;;;;;;;0.00;0.00;;;19.00;99.90;;;;;;7394587;19;20219;-74
2023/07/20 00:07:08;;;;;;;0.00;0.00;;;19.00;99.90;;;;;;7392222;19;20132;-75
2023/07/20 00:09:37;;;;;;;0.00;0.00;;;19.00;99.90;;;;;;7378338;19;20128;-75
2023/07/20 00:12:06;;;;;;;0.00;0.00;;;18.90;99.90;;;;;;7383949;19;20133;-75
2023/07/20 00:14:37;;;;;;;0.00;0.00;;;;;;;;;;7381175;19;20152;-74
2023/07/20 00:17:06;;;;;;;0.00;0.00;;;;;;;;;;7382364;19;20153;-75
2023/07/20 00:19:36;;;;;;;0.00;0.00;;;;;;;;;;7381992;19;20160;-72
2023/07/20 00:22:08;;;;;;;0.00;0.00;;;;;;;;;;7381835;19;20188;-74
2023/07/20 00:24:37;;;;;;;0.00;0.00;;;;;;;;;;7384753;19;20148;-73
2023/07/20 00:27:06;;;;;;;0.00;0.00;;;;;;;;;;7382033;19;20153;-74
2023/07/20 00:29:35;;;;;;;0.00;0.00;;;;;;;;;;7381878;19;20628;-73
2023/07/20 00:32:06;;;;;;;0.00;0.00;;;;;;;;;;7383884;19;20165;-73
2023/07/20 00:34:35;;;;;;;0.00;0.00;;;;;;;;;;7383824;19;20164;-73
2023/07/20 00:37:04;;;;;;;0.00;0.00;;;;;;;;;;7384263;19;20148;-74
2023/07/20 00:39:35;;;;;;;0.00;0.00;;;18.40;99.90;;;;;;7384149;19;20156;-74
2023/07/20 00:42:04;;;;;;;0.00;0.00;;;;;;;;;;7386035;19;20165;-74
2023/07/20 00:44:34;;;;;;;0.00;0.00;;;;;;;;;;7385149;19;20187;-73
2023/07/20 00:47:03;;;;;;;0.00;0.00;;;;;;;;;;7383265;19;20152;-73
2023/07/20 00:49:32;;;;;;;0.00;0.00;;;18.50;99.90;;;;;;7382986;19;20161;-74
2023/07/20 00:52:02;;;;;;;0.00;0.00;;;18.50;99.90;;;;;;7378874;19;20141;-74
2023/07/20 00:54:32;;;;;;;0.00;0.00;;;18.40;99.90;;;;;;7378663;19;20156;-73
2023/07/20 00:57:04;;;;;;;0.00;0.00;;;;;;;;;;7383924;19;20149;-73
2023/07/20 00:59:35;;;;;;;0.00;0.00;;;;;;;;;;7379731;19;20161;-74
2023/07/20 01:02:04;;;;;;;0.00;0.00;;;;;;;;;;7383972;19;20129;-73
2023/07/20 01:04:33;;;;;;;0.00;0.00;;;;;;;;;;7383054;19;20156;-74
2023/07/20 01:07:05;;;;;;;0.00;0.00;;;;;;;;;;7382692;19;20153;-73
2023/07/20 01:09:37;;;;;;;0.00;0.00;;;;;;;;;;7373770;19;20136;-73
2023/07/20 01:12:12;;;;;;;0.00;0.00;;;18.20;99.90;;;;;;7383248;19;20136;-74
2023/07/20 01:14:42;;;;;;;0.00;0.00;;;18.20;99.90;;;;;;7382926;19;20136;-73
2023/07/20 01:17:12;;;;;;;0.00;0.00;;;18.10;99.90;;;;;;7381070;19;20209;-74
2023/07/20 01:19:41;;;;;;;0.00;0.00;;;18.10;99.90;;;;;;7382233;19;20171;-74
2023/07/20 01:22:16;;;;;;;0.00;0.00;;;;;;;;;;7381754;19;20144;-73
2023/07/20 01:25:08;;;;;;;0.00;0.00;;;;;;;;;;7380849;19;20170;-73
2023/07/20 01:27:46;;;;;;;0.00;0.00;;;;;;;;;;7378527;19;20184;-74
2023/07/20 01:30:42;;;;;;;0.00;0.00;;;;;;;;;;7379340;19;20161;-74
2023/07/20 01:33:15;;;;;;;0.00;0.00;;;;;;;;;;7377595;19;20176;-74
2023/07/20 01:35:44;;;;;;;0.00;0.00;;;;;;;;;;7383128;19;20168;-74
2023/07/20 01:38:15;;;;;;;0.00;0.00;;;17.80;99.90;;;;;;7372636;19;20144;-73
2023/07/20 01:40:44;;;;;;;0.10;0.10;;;17.70;99.90;;;;;;7379522;19;20157;-73
2023/07/20 01:43:12;;;;;;;0.00;0.00;;;;;;;;;;7380124;19;20213;-74
2023/07/20 01:45:41;;;;;;;0.00;0.00;;;;;;;;;;7381553;19;20121;-74
2023/07/20 01:48:13;;;;;;;0.00;0.00;;;;;;;;;;7381045;19;20169;-74
2023/07/20 01:50:42;;;;;;;0.00;0.00;;;;;;;;;;7379581;19;20596;-74
2023/07/20 01:53:11;;;;;;;0.00;0.00;;;;;;;;;;7380194;19;20176;-73
2023/07/20 01:55:40;;;;;;;0.00;0.00;;;;;;;;;;7380671;19;20156;-74
2023/07/20 01:58:10;;;;;;;0.00;0.00;;;;;;;;;;7379943;19;20598;-74
2023/07/20 02:00:40;;;;;;;0.00;0.00;;;17.40;99.90;;;;;;7378935;19;20160;-74
2023/07/20 02:03:09;;;;;;;0.00;0.00;;;17.40;99.90;;;;;;7379674;19;20176;-74
2023/07/20 02:05:40;;;;;;;0.00;0.00;;;17.30;99.90;;;;;;7382677;19;20628;-74
2023/07/20 02:08:09;;;;;;;0.00;0.00;;;17.30;99.90;;;;;;7368344;19;20156;-74
2023/07/20 02:10:38;;;;;;;0.00;0.00;;;17.20;99.90;;;;;;7380306;19;20133;-75
2023/07/20 02:13:07;;;;;;;0.00;0.00;;;17.20;99.90;;;;;;7378592;19;20201;-74
2023/07/20 02:15:35;;;;;;;0.00;0.00;;;17.20;99.90;;;;;;7382233;19;20147;-74
2023/07/20 02:18:04;;;;;;;0.00;0.00;;;17.10;99.90;;;;;;7378911;19;20505;-74
2023/07/20 02:20:36;;;;;;;0.00;0.00;;;17.10;99.90;;;;;;7379991;19;20160;-74
2023/07/20 02:23:07;;;;;;;0.00;0.00;;;17.10;99.90;;;;;;7378854;19;20214;-74
2023/07/20 02:25:36;;;;;;;0.00;0.00;;;17.20;99.90;;;;;;7381111;19;20160;-74
2023/07/20 02:28:05;;;;;;;0.00;0.00;;;;;;;;;;7379119;19;20161;-75
2023/07/20 02:30:34;;;;;;;0.00;0.00;;;17.00;99.90;;;;;;7377854;19;20182;-74
2023/07/20 02:33:05;;;;;;;0.00;0.00;;;17.10;99.90;;;;;;7377323;19;20180;-74
2023/07/20 02:35:33;;;;;;;0.00;0.00;;;17.40;99.90;;;;;;7379634;19;20188;-74
2023/07/20 02:38:03;;;;;;;0.00;0.00;;;17.30;99.90;;;;;;7372536;19;20174;-75
2023/07/20 02:40:34;;;;;;;0.00;0.00;;;17.20;99.90;;;;;;7375729;19;20160;-75
2023/07/20 02:43:01;;;;;;;0.00;0.00;;;17.50;99.90;;;;;;7378014;19;20192;-74
2023/07/20 02:45:29;;;;;;;0.00;0.00;;;17.20;99.90;;;;;;7381696;19;20137;-74
2023/07/20 02:47:58;;;;;;;0.00;0.00;;;17.10;99.90;;;;;;7377943;19;20177;-74
2023/07/20 02:50:27;;;;;;;0.00;0.00;;;17.20;99.90;;;;;;7378029;19;20158;-74
2023/07/20 02:52:56;;;;;;;0.00;0.00;;;17.20;99.90;;;;;;7376453;19;20186;-75
2023/07/20 02:55:24;;;;;;;0.00;0.00;;;17.20;99.90;;;;;;7378748;19;20156;-75
2023/07/20 02:57:56;;;;;;;0.00;0.00;;;17.10;99.90;;;;;;7380352;19;20133;-75
2023/07/20 03:00:25;;;;;;;0.00;0.00;;;17.10;99.90;;;;;;7378420;19;20228;-75
2023/07/20 03:02:55;;;;;;;0.00;0.00;;;17.10;99.90;;;;;;7380696;19;20188;-74
2023/07/20 03:05:25;;;;;;;0.00;0.00;;;17.20;99.90;;;;;;7385381;19;20153;-74
2023/07/20 03:07:54;;;;;;;0.00;0.00;;;17.20;99.90;;;;;;7376760;19;20620;-74
2023/07/20 03:10:22;;;;;;;0.00;0.00;;;17.10;99.90;;;;;;7384557;19;20157;-74
2023/07/20 03:12:51;;;;;;;0.00;0.00;;;17.10;99.90;;;;;;7384019;19;20180;-74
2023/07/20 03:15:23;;;;;;;0.00;0.00;;;17.10;99.90;;;;;;7384591;19;20189;-74
2023/07/20 03:17:51;;;;;;;0.00;0.00;;;17.10;99.90;;;;;;7386972;19;20196;-74
2023/07/20 03:20:20;;;;;;;0.00;0.00;;;17.10;99.90;;;;;;7385294;19;20159;-74
2023/07/20 03:22:49;;;;;;;0.00;0.00;;;17.20;99.90;;;;;;7385716;19;20145;-74
2023/07/20 03:25:19;;;;;;;0.00;0.00;;;17.20;99.90;;;;;;7388226;19;20253;-74
2023/07/20 03:27:48;;;;;;;0.00;0.00;;;17.20;99.90;;;;;;7386001;19;20187;-75
2023/07/20 03:30:17;;;;;;;0.00;0.00;;;17.20;99.90;;;;;;7384414;19;20233;-74
2023/07/20 03:32:48;;;;;;;0.00;0.00;;;17.20;99.90;;;;;;7385021;19;20268;-74
2023/07/20 03:35:18;;;;;;;0.00;0.00;;;17.20;99.90;;;;;;7385050;19;20153;-74
2023/07/20 03:37:47;;;;;;;0.00;0.00;;;17.10;99.90;;;;;;7378095;19;20157;-74
2023/07/20 03:40:17;;;;;;;0.00;0.00;;;17.10;99.90;;;;;;7384452;19;20163;-74
2023/07/20 03:42:45;;;;;;;0.00;0.00;;;17.10;99.90;;;;;;7386898;19;20638;-74
2023/07/20 03:45:16;;;;;;;0.00;0.00;;;17.10;99.90;;;;;;7385573;19;20195;-75
2023/07/20 03:47:44;;;;;;;0.00;0.00;;;17.10;99.90;;;;;;7384646;19;20167;-74
2023/07/20 03:50:16;;;;;;;0.00;0.00;;;17.10;99.90;;;;;;7383551;19;20153;-74
2023/07/20 03:52:45;;;;;;;0.00;0.00;;;17.00;99.90;;;;;;7384383;19;20188;-74
2023/07/20 03:55:13;;;;;;;0.00;0.00;;;17.00;99.90;;;;;;7384544;19;20152;-74
2023/07/20 03:57:42;;;;;;;0.00;0.00;;;17.00;99.90;;;;;;7385965;19;20137;-74
2023/07/20 04:00:14;;;;;;;0.00;0.00;;;17.00;99.90;;;;;;7383673;19;20153;-74
2023/07/20 04:02:43;;;;;;;0.00;0.00;;;17.10;99.90;;;;;;7385903;19;20153;-74
2023/07/20 04:05:14;;;;;;;0.00;0.00;;;17.10;99.90;;;;;;7383810;19;20152;-74
2023/07/20 04:07:43;;;;;;;0.00;0.00;;;17.10;99.90;;;;;;7376811;19;20141;-74
2023/07/20 04:10:12;;;;;;;0.00;0.00;;;17.10;99.90;;;;;;7385044;19;20159;-74
2023/07/20 04:12:41;;;;;;;0.00;0.00;;;17.10;99.90;;;;;;7382978;19;20185;-74
2023/07/20 04:15:11;;;;;;;0.00;0.00;;;17.10;99.90;;;;;;7382100;19;20156;-74
2023/07/20 04:17:40;;;;;;;0.00;0.00;;;17.10;99.90;;;;;;7383742;19;20648;-74
2023/07/20 04:20:10;;;;;;;0.00;0.00;;;17.10;99.90;;;;;;7383905;19;20129;-75
2023/07/20 04:22:41;;;;;;;0.00;0.00;;;17.10;99.90;;;;;;7384291;19;20148;-74
2023/07/20 04:25:13;;;;;;;0.00;0.00;;;17.10;99.90;;;;;;7383839;19;20144;-74
2023/07/20 04:27:42;;;;;;;0.00;0.00;;;17.10;99.90;;;;;;7381013;19;20499;-78
2023/07/20 04:30:15;;;;;;;0.00;0.00;;;17.10;99.90;;;;;;7375667;19;20156;-78
2023/07/20 04:32:46;;;;;;;0.00;0.00;;;17.30;99.90;;;;;;7381137;19;20205;-78
2023/07/20 04:35:21;;;;;;;0.00;0.00;;;17.40;99.90;;;;;;7383871;19;20174;-79
2023/07/20 04:37:54;;;;;;;0.10;0.10;;;17.60;99.90;;;;;;7387535;19;20173;-78
2023/07/20 04:40:24;;;;;;;0.00;0.00;;;17.80;99.90;;;;;;7383961;19;20174;-79
2023/07/20 04:42:53;;;;;;;0.00;0.00;;;17.90;99.90;;;;;;7384777;19;20181;-78
2023/07/20 04:45:24;;;;;;;0.00;0.00;;;18.00;99.90;;;;;;7384930;19;20152;-78
2023/07/20 04:47:53;;;;;;;0.00;0.00;;;17.90;99.90;;;;;;7385333;19;20149;-78
2023/07/20 04:50:24;;;;;;;0.00;0.00;;;17.90;99.90;;;;;;7382950;19;20156;-79
2023/07/20 04:52:55;;;;;;;0.00;0.00;;;17.90;99.90;;;;;;7383718;19;20207;-78
2023/07/20 04:55:25;;;;;;;0.00;0.00;;;18.00;99.90;;;;;;7383111;19;20155;-76
2023/07/20 04:57:54;;;;;;;0.00;0.00;;;18.20;99.90;;;;;;7384273;19;20153;-79
2023/07/20 05:00:25;;;;;;;0.00;0.00;;;18.40;99.90;;;;;;7377124;19;20212;-77
2023/07/20 05:02:54;;;;;;;0.00;0.00;;;18.60;99.90;;;;;;7382176;19;20170;-81
2023/07/20 05:05:23;;;;;;;0.00;0.00;;;18.70;99.90;;;;;;7384553;19;20157;-80
2023/07/20 05:07:54;;;;;;;0.00;0.00;;;18.90;99.90;;;;;;7384503;19;20152;-80
2023/07/20 05:10:23;;;;;;;0.00;0.00;;;19.20;99.90;;;;;;7382739;19;20164;-81
2023/07/20 05:12:52;;;;;;;0.00;0.00;;;19.30;99.90;;;;;;7384089;19;20176;-80
2023/07/20 05:15:21;;;;;;;0.00;0.00;;;19.50;99.90;;;;;;7385817;19;20140;-81
2023/07/20 05:17:50;;;;;;;0.00;0.00;;;19.70;99.90;;;;;;7380693;19;20181;-80
2023/07/20 05:20:20;;;;;;;0.00;0.00;;;19.80;99.90;;;;;;7377963;19;20152;-76
2023/07/20 05:22:48;;;;;;;0.00;0.00;;;20.00;99.90;;;;;;7381996;19;20176;-75
2023/07/20 05:25:22;;;;;;;0.00;0.00;;;20.10;99.90;;;;;;7372747;19;20214;-74
2023/07/20 05:27:51;;;;;;;0.00;0.00;;;20.10;99.90;;;;;;7382537;19;20148;-74
2023/07/20 05:30:20;;;;;;;0.00;0.00;;;20.10;99.90;;;;;;7380179;19;20160;-75
2023/07/20 05:32:51;;;;;;;0.00;0.00;;;20.00;99.90;;;;;;7381699;19;20144;-73
2023/07/20 05:35:19;;;;;;;0.00;0.00;;;19.80;99.90;;;;;;7380592;19;20149;-75
2023/07/20 05:37:48;;;;;;;0.00;0.00;;;19.70;99.90;;;;;;7382647;19;20160;-75
2023/07/20 05:40:21;;;;;;;0.00;0.00;;;19.60;99.90;;;;;;7390501;19;20144;-76
2023/07/20 05:42:51;;;;;;;0.00;0.00;;;19.50;99.90;;;;;;7388904;19;20157;-74
2023/07/20 05:45:20;;;;;;;0.00;0.00;;;19.30;99.90;;;;;;7380550;19;20156;-75
2023/07/20 05:47:49;;;;;;;0.00;0.00;;;19.30;99.90;;;;;;7382718;19;20133;-75
2023/07/20 05:50:18;;;;;;;0.00;0.00;;;19.30;99.90;;;;;;7380421;19;20136;-75
2023/07/20 05:52:47;;;;;;;0.00;0.00;;;19.30;99.90;;;;;;7382897;19;20171;-75
2023/07/20 05:55:16;;;;;;;0.00;0.00;;;19.30;99.90;;;;;;7384382;19;20129;-75
2023/07/20 05:57:47;;;;;;;0.00;0.00;;;19.30;99.90;;;;;;7381411;19;20152;-74
2023/07/20 06:00:19;;;;;;;0.00;0.00;;;19.20;99.90;;;;;;7380878;19;20149;-75
2023/07/20 06:02:48;;;;;;;0.00;0.00;;;19.10;99.90;;;;;;7382172;19;20661;-75
2023/07/20 06:05:17;;;;;;;0.00;0.00;;;19.00;99.90;;;;;;7383029;19;20129;-75
2023/07/20 06:07:45;;;;;;;0.00;0.00;;;19.00;99.90;;;;;;7381725;19;20157;-75
2023/07/20 06:10:14;;;;;;;0.00;0.00;;;19.00;99.90;;;;;;7381200;19;20529;-75
2023/07/20 06:12:43;;;;;;;0.00;0.00;;;19.00;99.90;;;;;;7380115;19;20172;-75
2023/07/20 06:15:35;;;;;;;0.00;0.00;;;18.90;99.90;;;;;;7380918;19;20144;-75
2023/07/20 06:18:04;;;;;;;0.00;0.00;;;18.90;99.90;;;;;;7382918;19;20242;-74
2023/07/20 06:20:32;;;;;;;0.00;0.00;;;19.00;99.90;;;;;;7381049;19;20159;-75
2023/07/20 06:23:01;;;;;;;0.00;0.00;;;19.10;99.90;;;;;;7379861;19;20662;-76
2023/07/20 06:25:30;;;;;;;0.00;0.00;;;19.10;99.90;;;;;;7382655;19;20141;-75
2023/07/20 06:27:59;;;;;;;0.00;0.00;;;19.20;99.90;;;;;;7382574;19;20129;-75
2023/07/20 06:30:28;;;;;;;0.00;0.00;;;19.40;99.90;;;;;;7381148;19;20158;-76
2023/07/20 06:32:59;;;;;;;0.00;0.00;;;19.50;99.90;;;;;;7380668;19;20227;-74
2023/07/20 06:35:28;;;;;;;0.00;0.00;;;19.70;99.90;;;;;;7380389;19;20160;-76
2023/07/20 06:37:57;;;;;;;0.00;0.00;;;20.00;99.90;;;;;;7388001;19;20129;-74
2023/07/20 06:40:26;;;;;;;0.00;0.00;;;20.20;99.90;;;;;;7389089;19;20157;-74
2023/07/20 06:42:55;;;;;;;0.00;0.00;;;20.40;99.90;;;;;;7388127;19;20220;-75
2023/07/20 06:45:24;;;;;;;0.00;0.00;;;20.50;99.90;;;;;;7386928;19;20165;-75
2023/07/20 06:47:53;;;;;;;0.00;0.00;;;20.80;99.90;;;;;;7390223;19;20133;-75
2023/07/20 06:50:24;;;;;;;0.00;0.00;;;21.10;99.90;;;;;;7387039;19;20177;-75
2023/07/20 06:52:53;;;;;;;0.00;0.00;;;21.30;99.90;;;;;;7386894;19;20167;-75
2023/07/20 06:55:22;;;;;;;0.00;0.00;;;21.30;99.90;;;;;;7389571;19;20129;-75
2023/07/20 06:57:51;;;;;;;0.00;0.00;;;21.50;99.90;;;;;;7387944;19;20148;-75
2023/07/20 07:00:20;;;;;;;0.00;0.00;;;21.70;99.90;;;;;;7388333;19;20148;-75
2023/07/20 07:02:49;;;;;;;0.00;0.00;;;21.80;99.90;;;;;;7388109;19;20156;-75
2023/07/20 07:05:18;;;;;;;0.00;0.00;;;21.80;99.90;;;;;;7388768;19;20147;-76
2023/07/20 07:07:49;;;;;;;0.00;0.00;;;21.70;99.90;;;;;;7387306;19;20153;-74
2023/07/20 07:10:18;;;;;;;0.00;0.00;;;21.60;99.90;;;;;;7385547;19;20156;-75
2023/07/20 07:12:46;;;;;;;0.00;0.00;;;21.50;99.90;;;;;;7385099;19;20648;-75
2023/07/20 07:15:15;;;;;;;0.00;0.00;;;21.30;99.90;;;;;;7388182;19;20153;-75
2023/07/20 07:17:44;;;;;;;0.00;0.00;;;21.10;99.90;;;;;;7389024;19;20132;-76
2023/07/20 07:20:13;;;;;;;0.00;0.00;;;21.00;99.90;;;;;;7386911;19;20604;-75
2023/07/20 07:22:45;;;;;;;0.00;0.00;;;20.80;99.90;;;;;;7388632;19;20177;-75
2023/07/20 07:25:16;;;;;;;0.00;0.00;;;20.60;99.90;;;;;;7387333;19;20174;-75
2023/07/20 07:27:45;;;;;;;0.00;0.00;;;20.50;99.90;;;;;;7386767;19;20152;-75
2023/07/20 07:30:15;;;;;;;0.00;0.00;;;20.40;99.90;;;;;;7386351;19;20149;-76
2023/07/20 07:32:44;;;;;;;0.00;0.00;;;20.20;99.90;;;;;;7384574;19;20184;-75
2023/07/20 07:35:13;;;;;;;0.00;0.00;;;20.20;99.90;;;;;;7387152;19;20161;-75
2023/07/20 07:37:42;;;;;;;0.00;0.00;;;20.20;99.90;;;;;;7386194;19;20226;-75
2023/07/20 07:40:12;;;;;;;0.00;0.00;;;20.20;99.90;;;;;;7385885;19;20169;-75
2023/07/20 07:42:44;;;;;;;0.00;0.00;;;20.20;99.90;;;;;;7388012;19;20153;-75
2023/07/20 07:45:13;;;;;;;0.00;0.00;;;20.20;99.90;;;;;;7387066;19;20161;-75
2023/07/20 07:47:42;;;;;;;0.00;0.00;;;20.20;99.90;;;;;;7384028;19;20189;-75
2023/07/20 07:50:13;;;;;;;0.00;0.00;;;20.20;99.90;;;;;;7387154;19;20140;-75
2023/07/20 07:52:42;;;;;;;0.00;0.00;;;20.20;99.90;;;;;;7384158;19;20187;-74
2023/07/20 07:55:10;;;;;;;0.00;0.00;;;20.20;99.90;;;;;;7388171;19;20141;-76
2023/07/20 07:57:39;;;;;;;0.00;0.00;;;20.20;99.90;;;;;;7387338;19;20137;-75
2023/07/20 08:00:14;;;;;;;0.00;0.00;;;20.20;99.90;;;;;;7387058;19;20148;-75
2023/07/20 08:02:44;;;;;;;0.00;0.00;;;20.30;99.90;;;;;;7386706;19;20194;-76
2023/07/20 08:05:13;;;;;;;0.00;0.00;;;20.30;99.90;;;;;;7387463;19;20189;-76
2023/07/20 08:07:42;;;;;;;0.00;0.00;;;20.30;99.90;;;;;;7387833;19;20628;-75
2023/07/20 08:10:11;;;;;;;0.00;0.00;;;20.30;99.90;;;;;;7388604;19;20132;-74
2023/07/20 08:12:40;;;;;;;0.00;0.00;;;20.20;99.90;;;;;;7384266;19;20236;-75
2023/07/20 08:15:15;;;;;;;0.00;0.00;;;20.20;99.90;;;;;;7387588;19;20133;-76
2023/07/20 08:17:44;;;;;;;0.00;0.00;;;20.20;99.90;;;;;;7385590;19;20172;-75
2023/07/20 08:20:17;;;;;;;0.00;0.00;;;20.20;99.90;;;;;;7384074;19;20153;-75
2023/07/20 08:22:46;;;;;;;0.00;0.00;;;20.20;99.90;;;;;;7386714;19;20153;-74
2023/07/20 08:25:15;;;;;;;0.00;0.00;;;20.10;99.90;;;;;;7385195;19;20165;-76
2023/07/20 08:27:46;;;;;;;0.00;0.00;;;20.10;99.90;;;;;;7387409;19;20220;-75
2023/07/20 08:30:17;;;;;;;0.00;0.00;;;20.00;99.90;;;;;;7386883;19;20133;-75
2023/07/20 08:32:46;;;;;;;0.00;0.00;;;20.00;99.90;;;;;;7383005;19;20184;-75
2023/07/20 08:35:15;;;;;;;0.00;0.00;;;19.90;99.90;;;;;;7386924;19;20156;-75
2023/07/20 08:37:44;;;;;;;0.00;0.00;;;19.90;99.90;;;;;;7384145;19;20152;-76
2023/07/20 08:40:14;;;;;;;0.00;0.00;;;19.80;99.90;;;;;;7385206;19;20152;-74
2023/07/20 08:42:43;;;;;;;0.00;0.00;;;19.80;99.90;;;;;;7382635;19;20191;-75
2023/07/20 08:45:16;;;;;;;0.00;0.00;;;19.70;99.90;;;;;;7384793;19;20173;-74
2023/07/20 08:47:48;;;;;;;0.00;0.00;;;19.60;99.90;;;;;;7384082;19;20160;-74
2023/07/20 08:50:17;;;;;;;0.00;0.00;;;19.60;99.90;;;;;;7383363;19;20149;-74
2023/07/20 08:52:46;;;;;;;0.00;0.00;;;19.60;99.90;;;;;;7383918;19;20144;-74
2023/07/20 08:55:15;;;;;;;0.00;0.00;;;19.60;99.90;;;;;;7385819;19;20158;-75
2023/07/20 08:57:47;;;;;;;0.00;0.00;;;19.60;99.90;;;;;;7384595;19;20145;-76
2023/07/20 09:00:21;;;;;;;0.00;0.00;;;19.70;99.90;;;;;;7380261;19;20173;-75
2023/07/20 09:02:53;;;;;;;0.00;0.00;;;19.80;99.90;;;;;;7385285;19;20152;-75
2023/07/20 09:05:22;;;;;;;0.00;0.00;;;20.10;99.90;;;;;;7385207;19;20136;-75
2023/07/20 09:07:51;;;;;;;0.00;0.00;;;20.30;99.90;;;;;;7384931;19;20141;-74
2023/07/20 09:10:21;;;;;;;0.00;0.00;;;20.40;99.90;;;;;;7382712;19;20189;-75
2023/07/20 09:12:50;;;;;;;0.00;0.00;;;20.60;99.90;;;;;;7381922;19;20648;-75
2023/07/20 09:15:22;;;;;;;0.00;0.00;;;20.90;99.90;;;;;;7385235;19;20162;-75
2023/07/20 09:17:53;;;;;;;0.00;0.00;;;21.20;99.90;;;;;;7383240;19;20148;-76
2023/07/20 09:20:22;;;;;;;0.00;0.00;;;21.40;99.90;;;;;;7382526;19;20216;-75
2023/07/20 09:22:53;;;;;;;0.00;0.00;;;21.50;99.90;;;;;;7382098;19;20234;-75
2023/07/20 09:25:22;;;;;;;0.00;0.00;;;21.60;99.90;;;;;;7383917;19;20153;-76
2023/07/20 09:27:52;;;;;;;0.00;0.00;;;21.50;99.90;;;;;;7382708;19;20176;-76
2023/07/20 09:30:28;;;;;;;0.00;0.00;;;21.50;99.90;;;;;;7383769;19;20140;-75
2023/07/20 09:32:56;;;;;;;0.00;0.00;;;21.50;99.90;;;;;;7382324;19;20518;-76
2023/07/20 09:35:26;;;;;;;0.00;0.00;;;21.60;99.90;;;;;;7384904;19;20137;-74
2023/07/20 09:38:00;;;;;;;0.00;0.00;;;21.70;99.90;;;;;;7385489;19;20238;-76
2023/07/20 09:40:29;;;;;;;0.00;0.00;;;21.80;99.90;;;;;;7385210;19;20137;-76
2023/07/20 09:43:00;;;;;;;0.00;0.00;;;21.90;99.90;;;;;;7382926;19;20212;-76
2023/07/20 09:45:36;;;;;;;0.00;0.00;;;22.00;99.90;;;;;;7382095;19;20671;-75
2023/07/20 09:48:08;;;;;;;0.00;0.00;;;22.00;99.90;;;;;;7384104;19;20132;-75
2023/07/20 09:50:41;;;;;;;0.00;0.00;;;22.10;99.90;;;;;;7382475;19;20137;-76
2023/07/20 09:53:13;;;;;;;0.00;0.00;;;22.10;99.90;;;;;;7381254;19;20293;-74
2023/07/20 09:55:43;;;;;;;0.00;0.00;;;22.00;99.90;;;;;;7383125;19;20144;-76
2023/07/20 09:58:12;;;;;;;0.00;0.00;;;21.90;99.90;;;;;;7385621;19;20150;-75
2023/07/20 10:00:46;;;;;;;0.00;0.00;;;21.90;99.90;;;;;;7384330;19;20172;-76
2023/07/20 10:03:20;;;;;;;0.00;0.00;;;22.10;99.90;;;;;;7381737;19;20191;-76
2023/07/20 10:05:54;;;;;;;0.00;0.00;;;22.30;99.90;;;;;;7381465;19;20149;-76
2023/07/20 10:08:26;;;;;;;0.00;0.00;;;22.30;99.90;;;;;;7382439;19;20157;-75
2023/07/20 10:10:55;;;;;;;0.00;0.00;;;22.30;99.90;;;;;;7382258;19;20153;-75
2023/07/20 10:13:28;;;;;;;0.00;0.00;;;22.30;99.90;;;;;;7383600;19;20185;-75
2023/07/20 10:16:04;;;;;;;0.00;0.00;;;22.30;99.90;;;;;;7381090;19;20152;-74
2023/07/20 10:18:37;;;;;;;0.00;0.00;;;22.30;99.90;;;;;;7383241;19;20228;-75
2023/07/20 10:21:10;;;;;;;0.00;0.00;;;22.10;99.90;;;;;;7381402;19;20148;-75
2023/07/20 10:23:39;;;;;;;0.00;0.00;;;21.80;99.90;;;;;;7380180;19;20176;-75
2023/07/20 10:26:08;;;;;;;0.00;0.00;;;21.60;99.90;;;;;;7382582;19;20156;-75
2023/07/20 10:28:37;;;;;;;0.00;0.00;;;21.50;99.90;;;;;;7380332;19;20674;-74
2023/07/20 10:31:11;;;;;;;0.00;0.00;;;21.60;99.90;;;;;;7382354;19;20140;-75
2023/07/20 10:33:40;;;;;;;0.00;0.00;;;21.80;99.90;;;;;;7380804;19;20179;-76
2023/07/20 10:36:09;;;;;;;0.00;0.00;;;22.10;99.90;;;;;;7381200;19;20220;-75
2023/07/20 10:38:44;;;;;;;0.00;0.00;;;22.20;99.90;;;;;;7379935;19;20183;-75
2023/07/20 10:41:20;;;;;;;0.00;0.00;;;22.50;99.90;;;;;;7382866;19;20141;-76
2023/07/20 10:43:50;;;;;;;0.00;0.00;;;22.80;99.90;;;;;;7380539;19;20156;-76
2023/07/20 10:46:44;;;;;;;0.00;0.00;;;22.90;99.90;;;;;;7381333;19;20149;-76
2023/07/20 10:49:14;;;;;;;0.00;0.00;;;23.10;99.90;;;;;;7381579;19;20177;-75
2023/07/20 10:51:44;;;;;;;0.00;0.00;;;23.10;99.90;;;;;;7368326;19;20166;-75
2023/07/20 10:54:51;;;;;;;0.00;0.00;;;23.20;99.90;;;;;;7374600;19;20163;-75
2023/07/20 10:57:32;;;;;;;0.00;0.00;;;23.10;99.90;;;;;;7381367;19;20257;-74
2023/07/20 11:00:15;;;;;;;0.00;0.00;;;23.10;99.90;;;;;;7378172;19;20152;-73
2023/07/20 11:02:51;;;;;;;0.00;0.00;;;22.90;99.90;;;;;;7379667;19;20184;-73
2023/07/20 11:05:40;;;;;;;0.00;0.00;;;22.70;99.90;;;;;;7382568;19;20145;-73
2023/07/20 11:08:13;;;;;;;0.00;0.00;;;22.40;99.90;;;;;;7381028;19;20187;-74
2023/07/20 11:10:42;;;;;;;0.00;0.00;;;22.50;99.90;;;;;;7379718;19;20156;-73
2023/07/20 11:13:31;;;;;;;0.00;0.00;;;22.60;99.90;;;;;;7379568;19;20236;-74
2023/07/20 11:16:07;;;;;;;0.00;0.00;;;22.60;99.90;;;;;;7379487;19;20192;-74
2023/07/20 11:18:40;;;;;;;0.00;0.00;;;22.50;99.90;;;;;;7381704;19;20147;-74
2023/07/20 11:21:12;;;;;;;0.00;0.00;;;22.30;99.90;;;;;;7379095;19;20153;-74
2023/07/20 11:23:41;;;;;;;0.00;0.00;;;22.50;99.90;;;;;;7381490;19;20186;-73
2023/07/20 11:26:12;;;;;;;0.00;0.00;;;22.70;99.90;;;;;;7388849;19;20133;-74
2023/07/20 11:28:40;;;;;;;0.00;0.00;;;22.60;99.90;;;;;;7380486;19;20144;-73
2023/07/20 11:31:09;;;;;;;0.00;0.00;;;22.50;99.90;;;;;;7388161;19;20140;-74
2023/07/20 11:33:40;;;;;;;0.00;0.00;;;22.30;99.90;;;;;;7386612;19;20153;-73
2023/07/20 11:36:11;;;;;;;0.00;0.00;;;22.30;99.90;;;;;;7388608;19;20192;-73
2023/07/20 11:38:43;;;;;;;0.00;0.00;;;22.50;99.90;;;;;;7387442;19;20144;-73
2023/07/20 11:41:12;;;;;;;0.00;0.00;;;22.60;99.90;;;;;;7387535;19;20165;-73
2023/07/20 11:43:43;;;;;;;0.00;0.00;;;22.60;99.90;;;;;;7387363;19;20153;-73
2023/07/20 11:46:12;;;;;;;0.00;0.00;;;22.80;99.90;;;;;;7388556;19;20140;-74
2023/07/20 11:48:43;;;;;;;0.00;0.00;;;23.10;99.90;;;;;;7387015;19;20157;-74
2023/07/20 11:51:17;;;;;;;0.00;0.00;;;23.50;99.90;;;;;;7386989;19;20133;-73
2023/07/20 11:53:47;;;;;;;0.00;0.00;;;23.80;99.90;;;;;;7386040;19;20205;-73
2023/07/20 11:56:15;;;;;;;0.00;0.00;;;24.00;99.90;;;;;;7386507;19;20168;-74
2023/07/20 11:58:45;;;;;;;0.00;0.00;;;24.20;99.90;;;;;;7387698;19;20137;-74
2023/07/20 12:01:15;;;;;;;0.00;0.00;;;24.50;99.90;;;;;;7385725;19;20170;-74
2023/07/20 12:03:47;;;;;;;0.00;0.00;;;24.60;99.90;;;;;;7386600;19;20162;-75
2023/07/20 12:06:16;;;;;;;0.00;0.00;;;24.70;99.90;;;;;;7388394;19;20161;-72
2023/07/20 12:08:46;;;;;;;0.00;0.00;;;24.80;99.90;;;;;;7385582;19;20148;-74
2023/07/20 12:11:14;;;;;;;0.00;0.00;;;24.90;99.90;;;;;;7386230;19;20165;-74
2023/07/20 12:13:46;;;;;;;0.00;0.00;;;24.90;99.90;;;;;;7387125;19;20181;-72
2023/07/20 12:16:16;;;;;;;0.00;0.00;;;24.70;99.90;;;;;;7387881;19;20129;-74
2023/07/20 12:18:48;;;;;;;0.00;0.00;;;24.50;99.90;;;;;;7385830;19;20133;-73
2023/07/20 12:21:16;;;;;;;0.00;0.00;;;24.20;99.90;;;;;;7384252;19;20170;-72
2023/07/20 12:23:45;;;;;;;0.00;0.00;;;24.20;99.90;;;;;;7385497;19;20208;-73
2023/07/20 12:26:17;;;;;;;0.00;0.00;;;24.30;99.90;;;;;;7386630;19;20141;-74
2023/07/20 12:28:45;;;;;;;0.00;0.00;;;24.50;99.90;;;;;;7386651;19;20152;-73
2023/07/20 12:31:14;;;;;;;0.00;0.00;;;24.60;99.90;;;;;;7386600;19;20158;-74
2023/07/20 12:33:43;;;;;;;0.00;0.00;;;24.70;99.90;;;;;;7384744;19;20521;-74
2023/07/20 12:36:14;;;;;;;0.00;0.00;;;24.80;99.90;;;;;;7382306;19;20156;-73
2023/07/20 12:38:44;;;;;;;0.00;0.00;;;24.70;99.90;;;;;;7381809;19;20160;-73
2023/07/20 12:41:15;;;;;;;0.00;0.00;;;24.60;99.90;;;;;;7385785;19;20153;-73
2023/07/20 12:43:44;;;;;;;0.00;0.00;;;24.50;99.90;;;;;;7380568;19;20184;-73
2023/07/20 12:46:14;;;;;;;0.00;0.00;;;24.40;99.90;;;;;;7385162;19;20165;-74
2023/07/20 12:48:43;;;;;;;0.00;0.00;;;24.40;99.90;;;;;;7384794;19;20153;-74
2023/07/20 12:51:15;;;;;;;0.00;0.00;;;24.40;99.90;;;;;;7382965;19;20520;-73
2023/07/20 12:53:43;;;;;;;0.00;0.00;;;24.50;99.90;;;;;;7383124;19;20184;-73
2023/07/20 12:56:12;;;;;;;0.00;0.00;;;24.60;99.90;;;;;;7384645;19;20182;-73
2023/07/20 12:58:41;;;;;;;0.00;0.00;;;24.50;99.90;;;;;;7384913;19;20141;-74
2023/07/20 13:01:10;;;;;;;0.00;0.00;;;24.50;99.90;;;;;;7381927;19;20156;-73
2023/07/20 13:03:38;;;;;;;0.00;0.00;;;24.40;99.90;;;;;;7385865;19;20156;-74
2023/07/20 13:06:07;;;;;;;0.00;0.00;;;24.40;99.90;;;;;;7382944;19;20161;-73
2023/07/20 13:08:38;;;;;;;0.00;0.00;;;24.40;99.90;;;;;;7382521;19;20153;-75
2023/07/20 13:11:07;;;;;;;0.00;0.00;;;24.30;99.90;;;;;;7384486;19;20141;-75
2023/07/20 13:13:36;;;;;;;0.00;0.00;;;24.30;99.90;;;;;;7382487;19;20180;-74
2023/07/20 13:16:05;;;;;;;0.00;0.00;;;24.30;99.90;;;;;;7385735;19;20141;-74